| time (UTC) | temp C | wind direction | speed KPH | gust KPH | rain 1hr cm | rain 24hr cm | rain mn cm | humidity % | barometer mb |
| 20260510193112 | 29 | 290 | 4.8 | 14.5 | 0.00 | 0.10 | 0.00 | 66 | 1015.8 |
| 20260510191556 | 29 | 265 | 1.6 | 9.7 | 0.00 | 0.10 | 0.00 | 67 | 1015.8 |
| 20260510190057 | 28 | 259 | 3.2 | 6.4 | 0.00 | 0.10 | 0.00 | 75 | 1015.9 |
| 20260510184602 | 26 | 46 | 0.0 | 9.7 | 0.00 | 0.10 | 0.00 | 76 | 1015.8 |
| 20260510183057 | 26 | 360 | 6.4 | 19.3 | 0.00 | 0.10 | 0.00 | 71 | 1015.8 |
| 20260510181555 | 30 | 78 | 0.0 | 4.8 | 0.00 | 0.10 | 0.00 | 69 | 1016.0 |
| 20260510180105 | 30 | 30 | 0.0 | 3.2 | 0.00 | 0.10 | 0.00 | 68 | 1015.7 |
| 20260510174605 | 30 | 19 | 1.6 | 11.3 | 0.00 | 0.10 | 0.00 | 65 | 1015.9 |
| 20260510173102 | 30 | 200 | 1.6 | 9.7 | 0.00 | 0.10 | 0.00 | 63 | 1016.2 |
| 20260510171554 | 31 | 229 | 4.8 | 12.9 | 0.00 | 0.10 | 0.00 | 59 | 1016.2 |
| 20260510170058 | 31 | 11 | 1.6 | 8.0 | 0.00 | 0.10 | 0.00 | 62 | 1016.4 |
| 20260510164609 | 31 | 320 | 1.6 | 6.4 | 0.00 | 0.10 | 0.00 | 64 | 1016.4 |
| 20260510163053 | 31 | 334 | 3.2 | 17.7 | 0.00 | 0.10 | 0.00 | 63 | 1016.8 |
| 20260510161556 | 31 | 256 | 3.2 | 9.7 | 0.00 | 0.10 | 0.00 | 62 | 1017.3 |
| 20260510160054 | 30 | 190 | 1.6 | 6.4 | 0.00 | 0.10 | 0.00 | 64 | 1017.1 |
| 20260510154556 | 30 | 253 | 4.8 | 12.9 | 0.00 | 0.10 | 0.00 | 63 | 1017.2 |
| 20260510153051 | 30 | 211 | 3.2 | 11.3 | 0.00 | 0.10 | 0.00 | 64 | 1017.0 |
| 20260510151556 | 29 | 202 | 6.4 | 14.5 | 0.00 | 0.10 | 0.00 | 67 | 1016.9 |
| 20260510150120 | 28 | 360 | 3.2 | 9.7 | 0.00 | 0.10 | 0.00 | 69 | 1017.1 |
| 20260510144615 | 28 | 360 | 1.6 | 8.0 | 0.00 | 0.10 | 0.00 | 70 | 1016.9 |
| 20260510143058 | 27 | 64 | 1.6 | 11.3 | 0.00 | 0.10 | 0.00 | 73 | 1016.9 |
| 20260510141556 | 27 | 288 | 1.6 | 8.0 | 0.00 | 0.10 | 0.00 | 74 | 1016.8 |
| 20260510140056 | 26 | 221 | 1.6 | 6.4 | 0.00 | 0.10 | 0.00 | 76 | 1016.9 |
| 20260510134606 | 26 | 214 | 1.6 | 8.0 | 0.00 | 0.10 | 0.00 | 77 | 1017.0 |
| 20260510133054 | 25 | 149 | 0.0 | 3.2 | 0.00 | 0.10 | 0.00 | 81 | 1016.8 |
| 20260510131601 | 25 | 252 | 1.6 | 6.4 | 0.00 | 0.10 | 0.00 | 81 | 1016.8 |
| 20260510130055 | 24 | 0 | 1.6 | 6.4 | 0.00 | 0.10 | 0.00 | 85 | 1016.7 |
| 20260510124556 | 23 | 0 | 1.6 | 6.4 | 0.00 | 0.10 | 0.00 | 89 | 1016.6 |
| 20260510123057 | 22 | 294 | 0.0 | 3.2 | 0.00 | 0.10 | 0.00 | 91 | 1016.5 |
| 20260510121602 | 22 | 0 | 0.0 | 3.2 | 0.00 | 0.10 | 0.00 | 92 | 1016.3 |
| 20260510120057 | 22 | 291 | 0.0 | 3.2 | 0.00 | 0.10 | 0.00 | 92 | 1016.1 |
| 20260510114609 | 21 | 294 | 0.0 | 3.2 | 0.00 | 0.10 | 0.00 | 92 | 1015.9 |
| 20260510113059 | 21 | 0 | 0.0 | 3.2 | 0.00 | 0.10 | 0.00 | 92 | 1015.4 |
| 20260510111559 | 21 | 0 | 0.0 | 1.6 | 0.00 | 0.10 | 0.00 | 92 | 1015.1 |
| 20260510110054 | 21 | 0 | 0.0 | 0.0 | 0.00 | 0.10 | 0.00 | 92 | 1014.7 |
| 20260510104615 | 21 | 0 | 0.0 | 0.0 | 0.00 | 0.10 | 0.00 | 92 | 1014.6 |
| 20260510103101 | 21 | 0 | 0.0 | 0.0 | 0.00 | 0.10 | 0.00 | 92 | 1014.5 |
| 20260510101609 | 21 | 0 | 0.0 | 0.0 | 0.00 | 0.10 | 0.00 | 92 | 1014.4 |
| 20260510094605 | 21 | 0 | 0.0 | 3.2 | 0.00 | 0.10 | 0.00 | 92 | 1014.1 |
| 20260510093057 | 21 | 0 | 0.0 | 3.2 | 0.00 | 0.10 | 0.00 | 92 | 1014.1 |
| 20260510091554 | 21 | 0 | 0.0 | 0.0 | 0.00 | 0.10 | 0.00 | 92 | 1013.9 |
| 20260510090111 | 21 | 0 | 0.0 | 3.2 | 0.00 | 0.10 | 0.00 | 92 | 1013.9 |
| 20260510084553 | 21 | 0 | 0.0 | 0.0 | 0.00 | 0.10 | 0.00 | 92 | 1013.7 |
| 20260510083053 | 21 | 0 | 0.0 | 1.6 | 0.00 | 0.10 | 0.00 | 92 | 1013.5 |
| 20260510081600 | 21 | 0 | 0.0 | 1.6 | 0.00 | 0.10 | 0.00 | 91 | 1013.6 |
| 20260510080100 | 21 | 0 | 0.0 | 3.2 | 0.00 | 0.10 | 0.00 | 91 | 1013.7 |
| 20260510074606 | 21 | 0 | 0.0 | 0.0 | 0.00 | 0.10 | 0.00 | 91 | 1013.7 |
| 20260510073059 | 21 | 0 | 0.0 | 3.2 | 0.00 | 0.10 | 0.00 | 91 | 1013.9 |
| 20260510071602 | 21 | 294 | 0.0 | 3.2 | 0.00 | 0.10 | 0.00 | 91 | 1014.1 |
| 20260510070109 | 21 | 0 | 0.0 | 1.6 | 0.00 | 0.10 | 0.00 | 91 | 1014.1 |
| 20260510064601 | 21 | 294 | 0.0 | 3.2 | 0.00 | 0.10 | 0.00 | 91 | 1014.2 |
| 20260510063102 | 21 | 0 | 0.0 | 0.0 | 0.00 | 0.10 | 0.00 | 91 | 1014.4 |
| 20260510061555 | 21 | 0 | 0.0 | 0.0 | 0.00 | 0.10 | 0.00 | 91 | 1014.6 |
| 20260510060051 | 21 | 0 | 0.0 | 0.0 | 0.00 | 0.10 | 0.00 | 91 | 1014.8 |
| 20260510054600 | 21 | 0 | 0.0 | 0.0 | 0.00 | 0.10 | 0.00 | 91 | 1014.8 |
| 20260510053055 | 21 | 0 | 0.0 | 3.2 | 0.00 | 0.10 | 0.00 | 90 | 1015.0 |
| 20260510051634 | 21 | 0 | 0.0 | 3.2 | 0.00 | 0.10 | 0.00 | 90 | 1015.1 |
| 20260510051555 | 21 | 0 | 0.0 | 3.2 | 0.00 | 0.10 | 0.00 | 90 | 1015.1 |
| 20260510050059 | 21 | 0 | 0.0 | 0.0 | 0.00 | 0.10 | 0.00 | 90 | 1015.2 |
| 20260510044606 | 21 | 0 | 0.0 | 0.0 | 0.00 | 0.10 | 0.00 | 89 | 1015.5 |
| 20260510043106 | 21 | 0 | 0.0 | 0.0 | 0.00 | 0.10 | 0.00 | 89 | 1015.6 |
| 20260510041559 | 21 | 0 | 0.0 | 0.0 | 0.00 | 0.10 | 0.00 | 89 | 1015.5 |
| 20260510034557 | 21 | 0 | 0.0 | 0.0 | 0.00 | 0.10 | 0.10 | 89 | 1015.4 |
| 20260510033121 | 21 | 0 | 0.0 | 0.0 | 0.00 | 0.10 | 0.10 | 88 | 1015.6 |
| 20260510031629 | 21 | 0 | 0.0 | 0.0 | 0.00 | 0.10 | 0.10 | 88 | 1015.4 |
| 20260510030057 | 21 | 0 | 0.0 | 0.0 | 0.00 | 0.10 | 0.10 | 87 | 1015.5 |
| 20260510024559 | 22 | 0 | 0.0 | 0.0 | 0.00 | 0.10 | 0.10 | 86 | 1015.3 |
| 20260510023057 | 22 | 0 | 0.0 | 0.0 | 0.00 | 0.10 | 0.10 | 86 | 1015.3 |
| 20260510021601 | 22 | 0 | 0.0 | 0.0 | 0.00 | 0.10 | 0.10 | 85 | 1015.2 |
| 20260510020107 | 22 | 0 | 0.0 | 0.0 | 0.00 | 0.10 | 0.10 | 84 | 1015.1 |
| 20260510014607 | 23 | 0 | 0.0 | 0.0 | 0.00 | 0.10 | 0.10 | 83 | 1014.9 |
| 20260510013056 | 23 | 0 | 0.0 | 1.6 | 0.00 | 0.10 | 0.10 | 81 | 1014.8 |
| 20260510011559 | 24 | 0 | 0.0 | 3.2 | 0.00 | 0.10 | 0.10 | 79 | 1014.7 |
| 20260510004558 | 25 | 0 | 0.0 | 1.6 | 0.00 | 0.10 | 0.10 | 79 | 1014.2 |
| 20260510003101 | 25 | 329 | 3.2 | 9.7 | 0.00 | 0.10 | 0.10 | 76 | 1014.2 |
| 20260510001556 | 26 | 329 | 1.6 | 12.9 | 0.00 | 0.10 | 0.10 | 76 | 1013.9 |
| 20260510000058 | 27 | 0 | 0.0 | 4.8 | 0.00 | 0.10 | 0.10 | 70 | 1013.6 |
| 20260509234608 | 27 | 294 | 1.6 | 8.0 | 0.00 | 0.10 | 0.10 | 66 | 1013.6 |
| 20260509233053 | 28 | 223 | 3.2 | 9.7 | 0.00 | 0.10 | 0.10 | 66 | 1013.3 |
| 20260509231556 | 28 | 351 | 4.8 | 12.9 | 0.00 | 0.10 | 0.10 | 64 | 1013.2 |
| 20260509224553 | 29 | 331 | 4.8 | 12.9 | 0.00 | 0.10 | 0.10 | 60 | 1012.8 |
| 20260509223100 | 30 | 267 | 3.2 | 9.7 | 0.00 | 0.10 | 0.10 | 61 | 1012.5 |
| 20260509221555 | 30 | 316 | 3.2 | 8.0 | 0.00 | 0.10 | 0.10 | 63 | 1012.2 |
| 20260509220104 | 30 | 265 | 3.2 | 11.3 | 0.00 | 0.10 | 0.10 | 63 | 1012.1 |
| 20260509214554 | 31 | 165 | 1.6 | 8.0 | 0.00 | 0.10 | 0.10 | 64 | 1012.2 |
| 20260509213055 | 31 | 291 | 3.2 | 6.4 | 0.00 | 0.10 | 0.10 | 61 | 1012.0 |
| 20260509211604 | 31 | 300 | 3.2 | 8.0 | 0.00 | 0.10 | 0.10 | 64 | 1011.9 |
| 20260509210101 | 29 | 290 | 1.6 | 4.8 | 0.00 | 0.10 | 0.10 | 71 | 1011.9 |
| 20260509204600 | 28 | 327 | 1.6 | 14.5 | 0.00 | 0.10 | 0.10 | 73 | 1012.0 |
| 20260509203058 | 27 | 271 | 0.0 | 4.8 | 0.00 | 0.10 | 0.10 | 79 | 1011.9 |
| 20260509201553 | 26 | 202 | 0.0 | 3.2 | 0.08 | 0.10 | 0.10 | 85 | 1011.9 |
| 20260509200054 | 26 | 0 | 0.0 | 3.2 | 0.10 | 0.10 | 0.10 | 82 | 1012.2 |
| 20260509194557 | 26 | 202 | 1.6 | 11.3 | 0.10 | 0.10 | 0.10 | 77 | 1012.0 |